createdAt,value
2023-05-22T00:02:13.523Z,14.99
2023-05-22T00:04:40.051Z,14.90
2023-05-22T00:07:07.104Z,14.97
2023-05-22T00:09:33.532Z,14.96
2023-05-22T00:12:00.002Z,14.90
2023-05-22T00:14:26.412Z,14.93
2023-05-22T00:16:53.351Z,14.86
2023-05-22T00:19:23.193Z,14.83
2023-05-22T00:21:51.344Z,14.88
2023-05-22T00:24:17.901Z,14.83
2023-05-22T00:26:44.315Z,14.72
2023-05-22T00:29:10.833Z,14.82
2023-05-22T00:31:37.270Z,14.79
2023-05-22T00:34:03.762Z,14.70
2023-05-22T00:36:30.303Z,14.64
2023-05-22T00:38:56.800Z,14.59
2023-05-22T00:41:23.758Z,14.56
2023-05-22T00:43:51.215Z,14.57
2023-05-22T00:46:21.389Z,14.47
2023-05-22T00:48:48.953Z,14.46
2023-05-22T00:51:15.845Z,14.29
2023-05-22T00:53:43.370Z,14.27
2023-05-22T00:56:10.257Z,14.15
2023-05-22T00:58:37.510Z,14.10
2023-05-22T01:01:05.404Z,14.05
2023-05-22T01:03:32.185Z,14.03
2023-05-22T01:05:58.770Z,13.92
2023-05-22T01:08:25.239Z,13.92
2023-05-22T01:11:14.051Z,13.77
2023-05-22T01:14:00.629Z,13.83
2023-05-22T01:16:32.310Z,13.81
2023-05-22T01:19:22.514Z,13.60
2023-05-22T01:22:13.697Z,13.63
2023-05-22T01:24:58.246Z,13.58
2023-05-22T01:28:06.364Z,13.57
2023-05-22T01:30:50.037Z,13.56
2023-05-22T01:33:18.050Z,13.63
2023-05-22T01:35:48.507Z,13.66
2023-05-22T01:38:16.604Z,13.58
2023-05-22T01:40:45.746Z,13.46
2023-05-22T01:43:14.214Z,13.50
2023-05-22T01:45:40.767Z,13.43
2023-05-22T01:48:07.301Z,13.35
2023-05-22T01:50:34.126Z,13.41
2023-05-22T01:53:15.441Z,13.42
2023-05-22T01:56:05.248Z,13.41
2023-05-22T01:58:58.699Z,13.36
2023-05-22T02:01:28.935Z,13.33
2023-05-22T02:03:58.056Z,13.43
2023-05-22T02:06:32.444Z,13.33
2023-05-22T02:09:01.247Z,13.36
2023-05-22T02:11:30.501Z,13.40
2023-05-22T02:13:57.804Z,13.33
2023-05-22T02:16:24.505Z,13.41
2023-05-22T02:18:51.350Z,13.42
2023-05-22T02:21:17.815Z,13.37
2023-05-22T02:23:44.547Z,13.42
2023-05-22T02:26:11.054Z,13.42
2023-05-22T02:28:37.959Z,13.45
2023-05-22T02:31:04.493Z,13.57
2023-05-22T02:33:30.942Z,13.56
2023-05-22T02:35:57.388Z,13.47
2023-05-22T02:38:23.991Z,13.56
2023-05-22T02:40:50.471Z,13.60
2023-05-22T02:43:16.899Z,13.47
2023-05-22T02:45:43.326Z,13.55
2023-05-22T02:48:09.790Z,13.52
2023-05-22T02:50:36.287Z,13.55
2023-05-22T02:53:02.707Z,13.66
2023-05-22T02:55:29.157Z,13.58
2023-05-22T02:57:55.588Z,13.57
2023-05-22T03:00:22.569Z,13.58
2023-05-22T03:02:49.141Z,13.61
2023-05-22T03:05:17.661Z,13.58
2023-05-22T03:07:47.365Z,13.50
2023-05-22T03:10:14.849Z,13.51
2023-05-22T03:12:41.280Z,13.51
2023-05-22T03:15:08.322Z,13.62
2023-05-22T03:17:34.856Z,13.51
2023-05-22T03:20:01.320Z,13.59
2023-05-22T03:22:27.737Z,13.56
2023-05-22T03:24:54.169Z,13.56
2023-05-22T03:27:21.239Z,13.56
2023-05-22T03:29:47.683Z,13.59
2023-05-22T03:32:14.122Z,13.71
2023-05-22T03:34:41.080Z,13.80
2023-05-22T03:37:09.002Z,13.75
2023-05-22T03:39:36.103Z,13.79
2023-05-22T03:42:02.582Z,13.75
2023-05-22T03:44:29.036Z,13.76
2023-05-22T03:46:55.582Z,13.77
2023-05-22T03:49:22.023Z,13.88
2023-05-22T03:51:48.507Z,13.84
2023-05-22T03:54:14.924Z,13.82
2023-05-22T03:56:41.351Z,13.85
2023-05-22T03:59:07.775Z,13.83
2023-05-22T04:01:34.598Z,13.72
2023-05-22T04:04:01.974Z,13.78
2023-05-22T04:06:32.794Z,13.72
2023-05-22T04:09:00.624Z,13.95
2023-05-22T04:11:27.137Z,13.97
2023-05-22T04:13:53.578Z,14.11
2023-05-22T04:16:20.902Z,14.06
2023-05-22T04:18:47.387Z,14.07
2023-05-22T04:21:13.812Z,14.16
2023-05-22T04:23:43.224Z,14.15
2023-05-22T04:26:10.261Z,14.09
2023-05-22T04:28:36.796Z,14.21
2023-05-22T04:31:06.356Z,14.16
2023-05-22T04:33:34.416Z,14.28
2023-05-22T04:36:02.262Z,14.37
2023-05-22T04:38:28.879Z,14.32
2023-05-22T04:40:55.311Z,14.26
2023-05-22T04:43:23.396Z,14.36
2023-05-22T04:45:49.856Z,14.40
2023-05-22T04:48:16.294Z,14.56
2023-05-22T04:50:46.310Z,14.62
2023-05-22T04:53:13.090Z,14.69
2023-05-22T04:55:39.820Z,14.88
2023-05-22T04:58:06.424Z,15.03
2023-05-22T05:00:33.269Z,15.15
2023-05-22T05:03:00.414Z,15.24
2023-05-22T05:05:27.154Z,15.28
2023-05-22T05:07:53.577Z,15.35
2023-05-22T05:10:20.047Z,15.52
2023-05-22T05:12:46.535Z,15.67
2023-05-22T05:15:12.985Z,15.74
2023-05-22T05:17:39.513Z,15.93
2023-05-22T05:20:07.758Z,15.98
2023-05-22T05:22:34.367Z,15.97
2023-05-22T05:25:01.106Z,16.10
2023-05-22T05:27:27.564Z,16.19
2023-05-22T05:29:54.149Z,16.44
2023-05-22T05:32:20.928Z,16.68
2023-05-22T05:34:47.445Z,16.81
2023-05-22T05:37:14.157Z,16.85
2023-05-22T05:39:40.799Z,17.35
2023-05-22T05:42:07.302Z,17.62
2023-05-22T05:44:33.772Z,17.94
2023-05-22T05:47:01.298Z,18.40
2023-05-22T05:49:27.708Z,18.88
2023-05-22T05:51:54.197Z,19.06
2023-05-22T05:54:21.652Z,19.34
2023-05-22T05:56:48.452Z,19.49
2023-05-22T05:59:14.954Z,19.34
2023-05-22T06:01:44.616Z,19.70
2023-05-22T06:04:11.767Z,19.95
2023-05-22T06:06:39.498Z,19.94
2023-05-22T06:09:06.644Z,20.28
2023-05-22T06:11:34.029Z,20.36
2023-05-22T06:14:04.897Z,20.58
2023-05-22T06:16:31.537Z,21.01
2023-05-22T06:18:59.319Z,21.24
2023-05-22T06:21:26.090Z,21.82
2023-05-22T06:23:52.826Z,22.13
2023-05-22T06:26:19.356Z,22.50
2023-05-22T06:28:45.837Z,22.59
2023-05-22T06:31:12.323Z,22.62
2023-05-22T06:33:40.634Z,22.58
2023-05-22T06:36:08.803Z,22.68
2023-05-22T06:38:35.405Z,22.42
2023-05-22T06:41:01.976Z,22.51
2023-05-22T06:43:28.451Z,22.65
2023-05-22T06:45:54.958Z,23.25
2023-05-22T06:48:21.485Z,23.18
2023-05-22T06:50:47.952Z,23.13
2023-05-22T06:53:14.463Z,23.04
2023-05-22T06:55:41.924Z,23.47
2023-05-22T06:58:08.482Z,23.49
2023-05-22T07:00:35.282Z,23.58
2023-05-22T07:03:02.331Z,23.65
2023-05-22T07:05:28.955Z,23.93
2023-05-22T07:07:55.616Z,23.79
2023-05-22T07:10:22.149Z,23.31
2023-05-22T07:12:48.616Z,23.71
2023-05-22T07:15:15.160Z,23.37
2023-05-22T07:17:41.873Z,23.43
2023-05-22T07:20:09.657Z,23.84
2023-05-22T07:22:36.159Z,24.04
2023-05-22T07:25:02.634Z,24.69
2023-05-22T07:27:29.104Z,24.75
2023-05-22T07:29:55.553Z,24.49
2023-05-22T07:32:22.193Z,25.31
2023-05-22T07:34:50.037Z,25.20
2023-05-22T07:37:16.522Z,25.75
2023-05-22T07:39:43.068Z,25.63
2023-05-22T07:42:09.621Z,26.20
2023-05-22T07:44:36.087Z,26.32
2023-05-22T07:47:02.639Z,26.81
2023-05-22T07:49:29.107Z,26.74
2023-05-22T07:51:55.587Z,26.04
2023-05-22T07:54:22.071Z,26.41
2023-05-22T07:56:48.582Z,26.88
2023-05-22T07:59:16.230Z,27.01
2023-05-22T08:01:42.797Z,26.84
2023-05-22T08:04:09.811Z,26.45
2023-05-22T08:06:36.697Z,26.67
2023-05-22T08:09:04.840Z,26.87
2023-05-22T08:11:31.386Z,26.50
2023-05-22T08:13:58.090Z,26.08
2023-05-22T08:16:24.642Z,26.90
2023-05-22T08:18:51.518Z,26.63
2023-05-22T08:21:18.666Z,26.89
2023-05-22T08:23:45.213Z,26.57
2023-05-22T08:26:11.879Z,26.93
2023-05-22T08:28:41.962Z,26.85
2023-05-22T08:31:08.502Z,26.80
2023-05-22T08:33:34.963Z,27.04
2023-05-22T08:36:01.413Z,27.32
2023-05-22T08:38:27.890Z,27.70
2023-05-22T08:40:55.658Z,28.32
2023-05-22T08:43:22.317Z,28.35
2023-05-22T08:45:55.929Z,28.07
2023-05-22T08:48:23.735Z,27.72
2023-05-22T08:50:58.137Z,27.60
2023-05-22T08:53:28.230Z,28.47
2023-05-22T08:55:55.331Z,28.18
2023-05-22T08:58:22.276Z,28.65
2023-05-22T09:00:49.387Z,28.20
2023-05-22T09:03:16.171Z,28.73
2023-05-22T09:05:45.367Z,29.29
2023-05-22T09:08:19.697Z,28.85
2023-05-22T09:10:47.887Z,29.45
2023-05-22T09:13:25.162Z,28.39
2023-05-22T09:15:51.688Z,28.69
2023-05-22T09:18:18.248Z,28.87
2023-05-22T09:20:44.874Z,28.65
2023-05-22T09:23:17.745Z,28.73
2023-05-22T09:25:44.892Z,29.01
2023-05-22T09:28:12.783Z,28.76
2023-05-22T09:30:40.134Z,29.40
2023-05-22T09:33:08.753Z,30.11
2023-05-22T09:35:38.946Z,30.48
2023-05-22T09:38:06.434Z,30.68
2023-05-22T09:40:35.123Z,30.45
2023-05-22T09:43:07.051Z,30.12
2023-05-22T09:45:35.875Z,30.23
2023-05-22T09:48:06.730Z,28.96
2023-05-22T09:50:33.275Z,28.74
2023-05-22T09:53:03.067Z,29.13
2023-05-22T09:55:30.872Z,29.50
2023-05-22T09:57:58.286Z,29.90
2023-05-22T10:00:25.545Z,29.69
2023-05-22T10:02:58.886Z,29.64
2023-05-22T10:05:30.834Z,29.88
2023-05-22T10:08:13.932Z,29.33
2023-05-22T10:10:43.164Z,29.89
2023-05-22T10:13:10.984Z,29.82
2023-05-22T10:15:38.112Z,30.09
2023-05-22T10:18:05.872Z,29.30
2023-05-22T10:20:32.839Z,28.43
2023-05-22T10:23:02.565Z,28.45
2023-05-22T10:25:30.280Z,28.76
2023-05-22T10:27:58.000Z,28.36
2023-05-22T10:30:39.707Z,28.19
2023-05-22T10:33:18.210Z,27.49
2023-05-22T10:35:52.923Z,27.82
2023-05-22T10:38:46.856Z,27.59
2023-05-22T10:41:14.142Z,28.33
2023-05-22T10:43:44.306Z,28.35
2023-05-22T10:46:12.977Z,28.58
2023-05-22T10:48:41.719Z,27.39
2023-05-22T10:51:08.965Z,26.53
2023-05-22T10:53:36.202Z,26.42
2023-05-22T10:56:14.018Z,26.01
2023-05-22T10:58:44.094Z,26.17
2023-05-22T11:01:12.762Z,26.01
2023-05-22T11:03:58.289Z,26.07
2023-05-22T11:06:49.013Z,25.77
2023-05-22T11:09:31.298Z,25.51
2023-05-22T11:12:22.528Z,25.55
2023-05-22T11:14:51.403Z,25.78
2023-05-22T11:17:23.437Z,25.56
2023-05-22T11:20:05.320Z,25.47
2023-05-22T11:22:35.000Z,25.58
2023-05-22T11:25:05.279Z,25.75
2023-05-22T11:27:32.072Z,25.58
2023-05-22T11:30:00.217Z,25.52
2023-05-22T11:32:27.703Z,25.26
2023-05-22T11:34:57.934Z,25.26
2023-05-22T11:37:24.518Z,25.19
2023-05-22T11:39:55.940Z,25.19
2023-05-22T11:42:22.532Z,25.15
2023-05-22T11:44:49.073Z,25.25
2023-05-22T11:47:15.817Z,25.46
2023-05-22T11:49:43.088Z,24.99
2023-05-22T11:52:10.457Z,24.91
2023-05-22T11:54:38.766Z,24.62
2023-05-22T11:57:09.237Z,24.55
2023-05-22T11:59:36.173Z,24.48
2023-05-22T12:02:02.799Z,24.65
2023-05-22T12:04:29.698Z,24.18
2023-05-22T12:06:56.653Z,24.22
2023-05-22T12:09:23.494Z,24.41
2023-05-22T12:11:50.336Z,24.21
2023-05-22T12:14:16.861Z,24.15
2023-05-22T12:16:44.527Z,24.05
2023-05-22T12:19:12.140Z,24.05
2023-05-22T12:21:39.490Z,24.00
2023-05-22T12:24:06.597Z,23.85
2023-05-22T12:26:33.176Z,23.99
2023-05-22T12:28:59.755Z,23.94
2023-05-22T12:31:26.519Z,23.77
2023-05-22T12:33:55.019Z,23.59
2023-05-22T12:36:22.087Z,23.91
2023-05-22T12:38:48.592Z,24.03
2023-05-22T12:41:15.227Z,24.05
2023-05-22T12:43:41.729Z,23.79
2023-05-22T12:46:08.241Z,23.76
2023-05-22T12:48:34.811Z,23.86
2023-05-22T12:51:01.379Z,23.63
2023-05-22T12:53:27.884Z,23.68
2023-05-22T12:55:54.372Z,23.38
2023-05-22T12:58:20.916Z,23.30
2023-05-22T13:00:47.492Z,23.79
2023-05-22T13:03:14.112Z,23.60
2023-05-22T13:05:40.924Z,23.69
2023-05-22T13:08:07.799Z,23.84
2023-05-22T13:10:35.430Z,23.72
2023-05-22T13:13:01.916Z,23.82
2023-05-22T13:15:29.615Z,23.97
2023-05-22T13:17:56.865Z,23.83
2023-05-22T13:20:23.721Z,23.87
2023-05-22T13:22:50.360Z,24.39
2023-05-22T13:25:19.071Z,25.29
2023-05-22T13:27:46.558Z,25.37
2023-05-22T13:30:13.438Z,25.67
2023-05-22T13:32:40.009Z,25.72
2023-05-22T13:35:06.868Z,25.56
2023-05-22T13:37:33.378Z,25.49
2023-05-22T13:39:59.800Z,25.56
2023-05-22T13:42:26.296Z,25.28
2023-05-22T13:44:52.759Z,25.42
2023-05-22T13:47:19.267Z,25.87
2023-05-22T13:49:45.885Z,25.70
2023-05-22T13:52:12.327Z,25.69
2023-05-22T13:54:38.771Z,25.61
2023-05-22T13:57:06.559Z,25.30
2023-05-22T13:59:33.208Z,25.12
2023-05-22T14:01:59.669Z,24.69
2023-05-22T14:04:26.496Z,24.36
2023-05-22T14:06:53.012Z,24.50
2023-05-22T14:09:19.661Z,24.47
2023-05-22T14:11:46.451Z,24.61
2023-05-22T14:14:12.992Z,24.64
2023-05-22T14:16:39.501Z,24.57
2023-05-22T14:19:06.044Z,24.43
2023-05-22T14:21:33.050Z,24.62
2023-05-22T14:24:00.893Z,24.72
2023-05-22T14:26:27.329Z,24.72
2023-05-22T14:28:54.012Z,24.44
2023-05-22T14:31:20.507Z,24.20
2023-05-22T14:33:46.989Z,24.38
2023-05-22T14:36:13.433Z,24.46
2023-05-22T14:38:39.863Z,24.25
2023-05-22T14:41:06.330Z,24.21
2023-05-22T14:43:33.419Z,24.01
2023-05-22T14:46:00.008Z,23.82
2023-05-22T14:48:26.905Z,23.76
2023-05-22T14:50:53.809Z,23.74
2023-05-22T14:53:20.724Z,23.78
2023-05-22T14:55:47.524Z,23.61
2023-05-22T14:58:14.146Z,23.58
2023-05-22T15:00:42.658Z,23.92
2023-05-22T15:03:09.137Z,23.69
2023-05-22T15:05:35.588Z,23.71
2023-05-22T15:08:02.114Z,23.69
2023-05-22T15:10:28.636Z,23.50
2023-05-22T15:12:55.136Z,23.43
2023-05-22T15:15:21.605Z,23.36
2023-05-22T15:17:48.045Z,23.13
2023-05-22T15:20:14.538Z,22.88
2023-05-22T15:22:41.099Z,22.85
2023-05-22T15:25:11.373Z,22.82
2023-05-22T15:27:39.410Z,22.75
2023-05-22T15:30:09.751Z,22.68
2023-05-22T15:32:37.115Z,22.73
2023-05-22T15:35:05.388Z,22.59
2023-05-22T15:37:33.632Z,22.74
2023-05-22T15:40:01.317Z,22.61
2023-05-22T15:42:27.849Z,22.70
2023-05-22T15:44:54.417Z,22.67
2023-05-22T15:47:21.064Z,22.55
2023-05-22T15:49:47.508Z,22.40
2023-05-22T15:52:13.944Z,22.45
2023-05-22T15:54:40.474Z,22.49
2023-05-22T15:57:07.026Z,22.29
2023-05-22T15:59:33.486Z,22.31
2023-05-22T16:01:59.919Z,22.19
2023-05-22T16:04:26.349Z,22.04
2023-05-22T16:06:52.783Z,22.04
2023-05-22T16:09:19.465Z,21.94
2023-05-22T16:11:45.957Z,21.94
2023-05-22T16:14:12.423Z,21.78
2023-05-22T16:16:38.975Z,21.73
2023-05-22T16:19:05.706Z,21.66
2023-05-22T16:21:32.294Z,21.74
2023-05-22T16:23:59.456Z,21.76
2023-05-22T16:26:26.835Z,21.70
2023-05-22T16:28:53.274Z,21.75
2023-05-22T16:31:19.879Z,21.70
2023-05-22T16:33:46.393Z,21.58
2023-05-22T16:36:12.812Z,21.48
2023-05-22T16:38:39.360Z,21.54
2023-05-22T16:41:05.789Z,21.57
2023-05-22T16:43:32.208Z,21.44
2023-05-22T16:45:58.650Z,21.39
2023-05-22T16:48:25.133Z,21.40
2023-05-22T16:50:51.638Z,21.33
2023-05-22T16:53:18.091Z,21.19
2023-05-22T16:55:44.665Z,21.07
2023-05-22T16:58:12.743Z,21.14
2023-05-22T17:00:40.290Z,21.07
2023-05-22T17:03:08.090Z,21.05
2023-05-22T17:05:35.749Z,21.01
2023-05-22T17:08:02.188Z,21.01
2023-05-22T17:10:28.794Z,21.03
2023-05-22T17:12:55.307Z,21.13
2023-05-22T17:15:21.743Z,21.12
2023-05-22T17:17:48.264Z,20.96
2023-05-22T17:20:14.786Z,20.83
2023-05-22T17:22:42.586Z,20.78
2023-05-22T17:25:09.641Z,20.68
2023-05-22T17:27:36.978Z,20.57
2023-05-22T17:30:04.836Z,20.58
2023-05-22T17:32:31.650Z,20.58
2023-05-22T17:34:58.574Z,20.51
2023-05-22T17:37:25.070Z,20.51
2023-05-22T17:39:51.811Z,20.55
2023-05-22T17:42:18.343Z,20.43
2023-05-22T17:44:45.006Z,20.26
2023-05-22T17:47:13.191Z,20.33
2023-05-22T17:49:39.598Z,20.18
2023-05-22T17:52:07.444Z,20.33
2023-05-22T17:54:35.022Z,20.35
2023-05-22T17:57:03.938Z,20.29
2023-05-22T17:59:32.572Z,20.38
2023-05-22T18:01:59.142Z,20.28
2023-05-22T18:04:25.971Z,20.38
2023-05-22T18:06:52.478Z,20.18
2023-05-22T18:09:18.948Z,20.16
2023-05-22T18:11:45.429Z,20.08
2023-05-22T18:14:11.980Z,19.61
2023-05-22T18:16:38.549Z,19.61
2023-05-22T18:19:05.065Z,19.69
2023-05-22T18:21:32.221Z,19.92
2023-05-22T18:23:58.805Z,19.84
2023-05-22T18:26:26.632Z,19.84
2023-05-22T18:28:53.095Z,19.76
2023-05-22T18:31:19.627Z,19.58
2023-05-22T18:33:46.526Z,19.51
2023-05-22T18:36:13.039Z,19.54
2023-05-22T18:38:39.564Z,19.59
2023-05-22T18:41:06.511Z,19.62
2023-05-22T18:43:33.001Z,19.72
2023-05-22T18:45:59.493Z,19.68
2023-05-22T18:48:27.138Z,19.57
2023-05-22T18:50:53.787Z,19.56
2023-05-22T18:53:22.099Z,19.32
2023-05-22T18:55:48.796Z,19.35
2023-05-22T18:58:15.340Z,19.29
2023-05-22T19:00:42.101Z,19.29
2023-05-22T19:03:11.204Z,19.22
2023-05-22T19:05:38.009Z,19.12
2023-05-22T19:08:05.010Z,19.07
2023-05-22T19:10:31.706Z,18.82
2023-05-22T19:12:58.142Z,18.55
2023-05-22T19:15:25.799Z,18.32
2023-05-22T19:17:52.295Z,18.26
2023-05-22T19:20:18.746Z,18.09
2023-05-22T19:22:45.171Z,17.95
2023-05-22T19:25:11.641Z,18.09
2023-05-22T19:27:39.081Z,17.84
2023-05-22T19:30:06.685Z,17.41
2023-05-22T19:32:33.158Z,17.18
2023-05-22T19:34:59.656Z,17.22
2023-05-22T19:37:26.160Z,17.11
2023-05-22T19:39:53.987Z,16.94
2023-05-22T19:42:20.448Z,16.74
2023-05-22T19:44:47.047Z,16.54
2023-05-22T19:47:13.517Z,16.49
2023-05-22T19:49:40.007Z,16.28
2023-05-22T19:52:06.614Z,16.35
2023-05-22T19:54:33.129Z,16.40
2023-05-22T19:56:59.573Z,16.34
2023-05-22T19:59:27.004Z,16.63
2023-05-22T20:01:53.982Z,16.64
2023-05-22T20:04:21.392Z,16.59
2023-05-22T20:06:48.385Z,16.75
2023-05-22T20:09:15.004Z,16.67
2023-05-22T20:11:41.462Z,16.80
2023-05-22T20:14:08.236Z,16.56
2023-05-22T20:16:34.939Z,16.44
2023-05-22T20:19:02.506Z,16.41
2023-05-22T20:21:29.157Z,16.42
2023-05-22T20:23:55.682Z,16.26
2023-05-22T20:26:22.240Z,16.28
2023-05-22T20:28:48.674Z,16.24
2023-05-22T20:31:15.160Z,16.20
2023-05-22T20:33:41.841Z,16.17
2023-05-22T20:36:08.643Z,16.22
2023-05-22T20:38:35.145Z,16.21
2023-05-22T20:41:02.854Z,16.26
2023-05-22T20:43:31.973Z,16.22
2023-05-22T20:45:58.465Z,16.24
2023-05-22T20:48:24.962Z,16.36
2023-05-22T20:50:52.383Z,16.21
2023-05-22T20:53:19.470Z,16.17
2023-05-22T20:55:45.944Z,16.23
2023-05-22T20:58:13.822Z,16.10
2023-05-22T21:00:41.926Z,16.11
2023-05-22T21:03:08.798Z,15.77
2023-05-22T21:05:35.656Z,15.63
2023-05-22T21:08:02.200Z,15.52
2023-05-22T21:10:28.713Z,15.48
2023-05-22T21:12:55.165Z,15.46
2023-05-22T21:15:21.686Z,15.42
2023-05-22T21:17:48.153Z,15.47
2023-05-22T21:20:14.625Z,15.63
2023-05-22T21:22:41.289Z,15.64
2023-05-22T21:25:08.578Z,15.76
2023-05-22T21:27:35.017Z,15.61
2023-05-22T21:30:01.447Z,15.54
2023-05-22T21:32:27.890Z,15.59
2023-05-22T21:34:54.366Z,15.40
2023-05-22T21:37:20.812Z,15.38
2023-05-22T21:39:47.277Z,15.35
2023-05-22T21:42:16.276Z,15.37
2023-05-22T21:44:42.830Z,15.39
2023-05-22T21:47:09.736Z,15.36
2023-05-22T21:49:38.756Z,15.36
2023-05-22T21:52:05.922Z,15.43
2023-05-22T21:54:32.381Z,15.30
2023-05-22T21:56:58.902Z,15.21
2023-05-22T21:59:25.426Z,15.24
2023-05-22T22:01:51.974Z,15.35
2023-05-22T22:04:18.454Z,15.25
2023-05-22T22:06:44.931Z,15.10
2023-05-22T22:09:11.369Z,15.16
2023-05-22T22:11:37.864Z,15.17
2023-05-22T22:14:04.350Z,15.20
2023-05-22T22:16:35.395Z,15.19
2023-05-22T22:19:02.729Z,15.09
2023-05-22T22:21:29.666Z,15.13
2023-05-22T22:23:56.107Z,15.18
2023-05-22T22:26:22.606Z,15.15
2023-05-22T22:28:49.027Z,15.27
2023-05-22T22:31:15.617Z,15.20
2023-05-22T22:33:42.056Z,15.11
2023-05-22T22:36:08.782Z,14.97
2023-05-22T22:38:35.400Z,14.90
2023-05-22T22:41:01.893Z,14.86
2023-05-22T22:43:28.314Z,14.83
2023-05-22T22:45:55.716Z,14.74
2023-05-22T22:48:22.455Z,14.82
2023-05-22T22:50:49.342Z,14.83
2023-05-22T22:53:15.820Z,14.61
2023-05-22T22:55:42.601Z,14.65
2023-05-22T22:58:09.544Z,14.65
2023-05-22T23:00:36.663Z,14.62
2023-05-22T23:03:03.261Z,14.63
2023-05-22T23:05:29.757Z,14.69
2023-05-22T23:07:58.285Z,14.68
2023-05-22T23:10:24.788Z,14.65
2023-05-22T23:12:51.216Z,14.59
2023-05-22T23:15:17.792Z,14.59
2023-05-22T23:17:44.349Z,14.56
2023-05-22T23:20:11.082Z,14.62
2023-05-22T23:22:37.713Z,14.51
2023-05-22T23:25:04.418Z,14.58
2023-05-22T23:27:30.972Z,14.65
2023-05-22T23:29:58.153Z,14.56
2023-05-22T23:32:24.903Z,14.61
2023-05-22T23:34:51.406Z,14.62
2023-05-22T23:37:17.851Z,14.68
2023-05-22T23:39:44.268Z,14.73
2023-05-22T23:42:11.910Z,14.67
2023-05-22T23:44:38.332Z,14.63
2023-05-22T23:47:05.763Z,14.56
2023-05-22T23:49:32.349Z,14.67
2023-05-22T23:51:58.944Z,14.62
2023-05-22T23:54:25.432Z,14.55
2023-05-22T23:56:51.874Z,14.66
2023-05-22T23:59:18.314Z,14.59
